Flight Track Log - Related Links

Times and Time Zones

All times are in EDT time to prevent confusion due to time zone crossing. See the N143DE flight status page for this flight to view local times or setup timezone preferences in your user account.

Time Position Orientation Groundspeed Altitude Reporting Facility
EDT Latitude Longitude Course Direction KTS MPH feet Rate Location/Type
Wed 07:29:45 AM 36.9678 -88.7861 186° South 244 281 5,300  Level Memphis Center
Wed 07:30:45 AM 36.9261 -88.7919 186° South 188 216 7,400 1,950 Climbing Memphis Center
Wed 07:31:45 AM 36.8847 -88.8058 195° South 171 197 9,200 1,850 Climbing Memphis Center
Wed 07:32:45 AM 36.8369 -88.8172 191° South 171 197 11,100 1,600 Climbing Memphis Center
Wed 07:33:45 AM 36.7892 -88.8283 191° South 171 197 12,400 1,350 Climbing Memphis Center
Wed 07:34:45 AM 36.7372 -88.8450 194° South 182 209 13,800 1,350 Climbing Memphis Center
Wed 07:35:45 AM 36.6872 -88.8561 190° South 187 215 15,100 1,250 Climbing Memphis Center
Wed 07:36:45 AM 36.6353 -88.8700 192° South 187 215 16,300 1,250 Climbing Memphis Center
Wed 07:37:45 AM 36.5833 -88.8839 192° South 192 221 17,600 1,150 Climbing Memphis Center
Wed 07:38:45 AM 36.5314 -88.9006 194° South 192 221 18,600 1,000 Climbing Memphis Center
Wed 07:39:45 AM 36.4775 -88.9144 192° South 197 227 19,600 950 Climbing Memphis Center
Wed 07:40:45 AM 36.4214 -88.9281 191° South 203 234 20,500 950 Climbing Memphis Center
Wed 07:41:45 AM 36.3672 -88.9447 194° South 203 234 21,500 950 Climbing Memphis Center
Wed 07:42:45 AM 36.3133 -88.9583 192° South 203 234 22,400 900 Climbing Memphis Center
Wed 07:43:45 AM 36.2572 -88.9747 193° South 203 234 23,300 900 Climbing Memphis Center
Wed 07:44:45 AM 36.1969 -88.9914 193° South 203 234 24,200 850 Climbing Memphis Center
Wed 07:45:45 AM 36.1428 -89.0050 191° South 203 234 25,000 750 Climbing Memphis Center
Wed 07:46:45 AM 36.0889 -89.0189 192° South 203 234 25,700 600 Climbing Memphis Center
Wed 07:47:45 AM 36.0347 -89.0325 191° South 203 234 26,200 250 Climbing Memphis Center
Wed 07:48:45 AM 35.9722 -89.0489 192° South 209 241 26,200 -50 Level Memphis Center
Wed 07:49:45 AM 35.9078 -89.0653 192° South 228 262 26,100 -50 Descending Memphis Center
Wed 07:50:45 AM 35.8433 -89.0842 193° South 239 275 26,100  Level Memphis Center
Wed 07:51:45 AM 35.7769 -89.1058 195° South 244 281 26,100  Level Memphis Center
Wed 07:52:45 AM 35.7125 -89.1272 195° South 244 281 26,100  Level Memphis Center
Wed 07:53:45 AM 35.6542 -89.1408 191° South 238 274 26,100  Level Memphis Center
Wed 07:54:45 AM 35.5836 -89.1597 192° South 238 274 26,100  Level Memphis Center
Wed 07:55:45 AM 35.5189 -89.1761 192° South 238 274 26,100  Level Memphis Center
Wed 07:56:45 AM 35.4544 -89.1897 190° South 238 274 26,100  Level Memphis Center
Wed 07:57:45 AM 35.3919 -89.2083 194° South 238 274 26,100  Level Memphis Center
Wed 07:58:45 AM 35.3275 -89.2269 193° South 238 274 26,100  Level Memphis Center
Wed 07:59:45 AM 35.2653 -89.2433 192° South 238 274 26,100  Level Memphis Center
Wed 08:00:45 AM 35.2006 -89.2619 193° South 238 274 26,100  Level Memphis Center
Wed 08:01:45 AM 35.1383 -89.2778 192° South 238 274 26,100  Level Memphis Center
Wed 08:02:45 AM 35.0778 -89.2939 192° South 238 274 26,100  Level Memphis Center
Wed 08:03:45 AM 35.0133 -89.3100 192° South 238 274 26,100  Level Memphis Center
Wed 08:04:45 AM 34.9489 -89.3258 191° South 238 274 26,100  Level Memphis Center
Wed 08:05:45 AM 34.8822 -89.3419 191° South 238 274 26,100  Level Memphis Center
Wed 08:06:45 AM 34.8175 -89.3606 193° South 238 274 26,100  Level Memphis Center
Wed 08:07:45 AM 34.7428 -89.3817 193° South 238 274 26,100  Level Memphis Center
Wed 08:08:45 AM 34.6781 -89.4000 193° South 238 274 26,100  Level Memphis Center
Wed 08:09:45 AM 34.6114 -89.4183 193° South 238 274 26,100  Level Memphis Center
Wed 08:10:45 AM 34.5447 -89.4342 191° South 243 280 26,100  Level Memphis Center
Wed 08:11:45 AM 34.4783 -89.4528 193° South 243 280 26,100  Level Memphis Center
Wed 08:12:45 AM 34.4117 -89.4708 193° South 243 280 26,100  Level Memphis Center
Wed 08:13:45 AM 34.3450 -89.4892 193° South 243 280 26,100  Level Memphis Center
Wed 08:14:45 AM 34.2844 -89.5050 192° South 238 274 26,100  Level Memphis Center
Wed 08:15:45 AM 34.2219 -89.5231 193° South 238 274 26,100  Level Memphis Center
Wed 08:16:45 AM 34.1533 -89.5389 191° South 238 274 26,100  Level Memphis Center
Wed 08:17:45 AM 34.0908 -89.5544 192° South 238 274 26,100 50 Level Memphis Center
Wed 08:18:45 AM 34.0261 -89.5728 193° South 238 274 26,200 50 Climbing Memphis Center
Wed 08:19:45 AM 33.9617 -89.5883 191° South 238 274 26,200  Level Memphis Center
Wed 08:20:45 AM 33.8908 -89.6089 194° South 238 274 26,200  Level Memphis Center
Wed 08:21:45 AM 33.8242 -89.6244 191° South 238 274 26,200  Level Memphis Center
Wed 08:22:45 AM 33.7594 -89.6450 195° South 238 274 26,200  Level Memphis Center
Wed 08:23:45 AM 33.6950 -89.6631 193° South 238 274 26,200  Level Memphis Center
Wed 08:24:45 AM 33.6281 -89.6761 189° South 238 274 26,200  Level Memphis Center
Wed 08:25:45 AM 33.5636 -89.6942 193° South 238 274 26,200  Level Memphis Center
Wed 08:26:45 AM 33.5011 -89.7119 193° South 238 274 26,200  Level Memphis Center
Wed 08:27:45 AM 33.4364 -89.7275 191° South 238 274 26,200  Level Memphis Center
Wed 08:28:45 AM 33.3697 -89.7453 193° South 238 274 26,200  Level Memphis Center
Wed 08:29:45 AM 33.3050 -89.7606 191° South 238 274 26,200  Level Memphis Center
Wed 08:30:45 AM 33.2406 -89.7786 193° South 238 274 26,200  Level Memphis Center
Wed 08:31:45 AM 33.1736 -89.7939 191° South 238 274 26,200  Level Memphis Center
Wed 08:32:45 AM 33.1133 -89.8117 194° South 238 274 26,200  Level Memphis Center
Wed 08:33:45 AM 33.0486 -89.8269 191° South 238 274 26,200  Level Memphis Center
Wed 08:34:45 AM 32.9881 -89.8372 188° South 243 280 26,200  Level Memphis Center
Wed 08:35:45 AM 32.9150 -89.8575 193° South 237 273 26,200  Level Memphis Center
Wed 08:36:45 AM 32.8608 -89.8725 193° South 237 273 26,200  Level Memphis Center
Wed 08:37:45 AM 32.7964 -89.8903 193° South 237 273 26,200  Level Memphis Center
Wed 08:38:45 AM 32.7275 -89.9078 192° South 237 273 26,200  Level Memphis Center
Wed 08:39:45 AM 32.6628 -89.9231 191° South 237 273 26,200  Level Memphis Center
Wed 08:40:45 AM 32.6003 -89.9381 191° South 237 273 26,200  Level Memphis Center
Wed 08:41:45 AM 32.5336 -89.9556 192° South 242 278 26,200  Level Memphis Center
Wed 08:42:45 AM 32.4647 -89.9733 192° South 242 278 26,200  Level Memphis Center
Wed 08:43:45 AM 32.4000 -89.9883 191° South 247 284 26,200  Level Memphis Center
Wed 08:44:45 AM 32.3333 -90.0058 193° South 247 284 26,200  Level Memphis Center
Wed 08:45:45 AM 32.2664 -90.0233 192° South 247 284 26,200  Level Memphis Center
Wed 08:46:45 AM 32.1997 -90.0381 191° South 247 284 26,200  Level Memphis Center
Wed 08:47:45 AM 32.1350 -90.0556 193° South 242 278 26,200  Level Memphis Center
Wed 08:48:45 AM 32.0683 -90.0706 191° South 237 273 26,200  Level Memphis Center
Wed 08:49:45 AM 32.0036 -90.0856 191° South 237 273 26,200  Level Memphis Center
Wed 08:50:45 AM 31.9389 -90.1028 193° South 237 273 26,200  Level Memphis Center
Wed 08:52:58 AM 31.7933 -90.1381 192° South 244 281 26,200  Level Houston Center
Wed 08:54:00 AM 31.7283 -90.1542 192° South 240 276 26,200  Level Houston Center
Wed 08:55:01 AM 31.6622 -90.1719 193° South 241 277 26,200  Level Houston Center
Wed 08:56:03 AM 31.5961 -90.1875 191° South 241 277 26,200 -48 Level Houston Center
Wed 08:57:05 AM 31.5303 -90.2033 192° South 242 278 26,100 -634 Descending Houston Center
Wed 08:58:06 AM 31.4608 -90.2183 190° South 251 289 24,900 -1,220 Descending Houston Center
Wed 08:59:08 AM 31.3711 -90.2414 192° South 271 312 23,600 -1,220 Descending Houston Center
Wed 09:00:09 AM 31.2969 -90.2597 192° South 272 313 22,400 -1,366 Descending Houston Center
Wed 09:01:11 AM 31.2242 -90.2539 176° South 266 306 20,800 -1,463 Descending Houston Center
Wed 09:02:12 AM 31.1506 -90.2472 176° South 263 303 19,400 -1,366 Descending Houston Center
Wed 09:03:14 AM 31.0772 -90.2408 176° South 267 307 18,000 -1,317 Descending Houston Center
Wed 09:04:15 AM 31.0028 -90.2358 177° South 266 306 16,700 -1,268 Descending Houston Center
Wed 09:05:17 AM 30.9294 -90.2306 176° South 265 305 15,400 -1,355 Descending Houston Center
Wed 09:06:19 AM 30.8431 -90.2247 177° South 259 298 13,900 -1,429 Descending Houston Center
Wed 09:06:41 AM 30.8172 -90.2272 185° South 255 293 13,400 -1,082 Descending Houston Center
Wed 09:07:20 AM 30.7733 -90.2200 172° South 253 291 12,800 -984 Descending Houston Center
Wed 09:07:42 AM 30.7481 -90.2178 176° South 246 283 12,400 -871 Descending Houston Center
Wed 09:08:22 AM 30.7089 -90.2281 193° South 241 277 11,900 -891 Descending Houston Center
Wed 09:09:23 AM 30.6483 -90.2603 205° Southwest 239 275 10,900 -976 Descending Houston Center
Wed 09:10:25 AM 30.5878 -90.2928 205° Southwest 239 275 9,900 -1,016 Descending Houston Center
Wed 09:11:27 AM 30.5256 -90.3225 202° Southwest 241 277 8,800 -1,073 Descending Houston Center
Wed 09:12:28 AM 30.4628 -90.3547 204° Southwest 245 282 7,700 -1,122 Descending Houston Center
Wed 09:13:30 AM 30.3931 -90.3936 206° Southwest 239 275 6,500 -823 Descending Houston Center
Wed 09:14:32 AM 30.3411 -90.4242 207° Southwest 227 261 6,000 -585 Descending Houston Center
Wed 09:15:33 AM 30.2933 -90.4528 207° Southwest 211 243 5,300 -683 Descending Houston Center
Wed 09:16:35 AM 30.2458 -90.4794 206° Southwest 200 230 4,600 -581 Descending Houston Center
Wed 09:17:37 AM 30.1967 -90.4931 193° South 189 217 4,100 -295 Descending Houston Center
Wed 09:18:37 AM 30.1442 -90.4972 184° South 156 180 4,000 -450 Descending Houston Center
Wed 09:19:37 AM 30.0942 -90.5014 184° South 166 191 3,200 -864 Descending Houston Center
Wed 09:20:42 AM 30.0542 -90.4758 151° Southeast 178 205 2,200 -524 Descending Houston Center
Wed 09:21:43 AM 30.0333 -90.4347 120° Southeast 166 191 2,100 -98 Descending Houston Center
Wed 09:22:45 AM 30.0256 -90.3967 103° East 145 167 2,000 -339 Descending Houston Center
Wed 09:23:47 AM 30.0167 -90.3625 107° East 127 146 1,400 -581 Descending Houston Center
Wed 09:24:49 AM 30.0083 -90.3247 104° East 122 140 800 -615 Descending Houston Center
Wed 09:25:05 AM 30.0028 -90.3056 109° East 122 140 600 -97 Descending Houston Center
Wed 09:25:51 AM 30.0003 -90.2875 99° East 122 140 700 130 Climbing Houston Center

Login

Don't have an account? Register now (free) for customized features, flight alerts, and more!